createdAt,value
2022-12-24T03:59:40.796Z,0.00
2022-12-24T04:00:40.811Z,0.00
2022-12-24T04:01:40.836Z,0.00
2022-12-24T04:02:40.913Z,0.00
2022-12-24T04:03:40.725Z,0.00
2022-12-24T04:04:40.720Z,0.00
2022-12-24T04:05:40.715Z,0.00
2022-12-24T04:06:40.703Z,0.00
2022-12-24T04:07:40.705Z,0.00
2022-12-24T04:08:40.697Z,0.00
2022-12-24T04:09:40.713Z,0.00
2022-12-24T04:10:40.679Z,0.00
2022-12-24T04:11:40.675Z,0.00
2022-12-24T04:12:40.675Z,0.00
2022-12-24T04:13:40.668Z,0.00
2022-12-24T04:14:40.661Z,0.00
2022-12-24T04:15:40.674Z,0.00
2022-12-24T04:16:40.683Z,0.00
2022-12-24T04:17:40.661Z,0.00
2022-12-24T04:18:40.674Z,0.00
2022-12-24T04:19:40.640Z,0.00
2022-12-24T04:20:40.621Z,0.00
2022-12-24T04:21:40.626Z,0.00
2022-12-24T04:22:40.614Z,0.00
2022-12-24T04:23:40.664Z,0.00
2022-12-24T04:24:40.605Z,0.00
2022-12-24T04:25:40.602Z,0.00
2022-12-24T04:26:40.606Z,0.00
2022-12-24T04:27:40.601Z,0.00
2022-12-24T04:28:40.612Z,0.00
2022-12-24T04:29:40.606Z,0.00
2022-12-24T04:30:40.595Z,0.00
2022-12-24T04:31:40.667Z,0.00
2022-12-24T04:32:40.570Z,0.00
2022-12-24T04:33:40.579Z,0.00
2022-12-24T04:34:40.568Z,0.00
2022-12-24T04:35:40.565Z,0.00
2022-12-24T04:36:40.559Z,0.00
2022-12-24T04:37:40.571Z,0.00
2022-12-24T04:38:40.563Z,0.00
2022-12-24T04:39:40.573Z,0.00
2022-12-24T04:40:40.538Z,0.00
2022-12-24T04:41:40.532Z,0.00
2022-12-24T04:42:40.531Z,0.00
2022-12-24T04:43:40.528Z,0.00
2022-12-24T04:44:40.534Z,0.00
2022-12-24T04:45:40.529Z,0.00
2022-12-24T04:46:40.520Z,0.00
2022-12-24T04:47:40.529Z,0.00
2022-12-24T04:48:40.519Z,0.00
2022-12-24T04:49:40.527Z,0.00
2022-12-24T04:50:40.496Z,0.00
2022-12-24T04:51:40.495Z,0.00
2022-12-24T04:52:40.489Z,0.00
2022-12-24T04:53:40.501Z,0.00
2022-12-24T04:54:40.499Z,0.00
2022-12-24T04:55:40.481Z,0.00
2022-12-24T04:56:40.484Z,0.00
2022-12-24T04:57:40.471Z,0.00
2022-12-24T04:58:40.473Z,0.00
2022-12-24T04:59:40.483Z,0.00
2022-12-24T05:00:40.459Z,0.00
2022-12-24T05:01:40.561Z,0.00
2022-12-24T05:02:40.595Z,0.00
2022-12-24T05:03:40.469Z,0.00
2022-12-24T05:04:40.480Z,0.00
2022-12-24T05:05:40.447Z,0.00
2022-12-24T05:06:40.457Z,0.00
2022-12-24T05:07:40.430Z,0.00
2022-12-24T05:08:40.433Z,0.00
2022-12-24T05:09:40.450Z,0.00
2022-12-24T05:10:40.428Z,0.00
2022-12-24T05:11:40.419Z,0.00
2022-12-24T05:12:40.415Z,0.00
2022-12-24T05:13:46.230Z,0.00
2022-12-24T05:14:40.413Z,0.00
2022-12-24T05:15:40.401Z,0.00
2022-12-24T05:16:40.439Z,0.00
2022-12-24T05:17:40.390Z,0.00
2022-12-24T05:18:40.429Z,0.00
2022-12-24T05:19:40.389Z,0.00
2022-12-24T05:20:40.383Z,0.00
2022-12-24T05:21:40.365Z,0.00
2022-12-24T05:22:40.365Z,0.00
2022-12-24T05:23:40.362Z,0.00
2022-12-24T05:24:40.375Z,0.00
2022-12-24T05:25:40.354Z,0.00
2022-12-24T05:26:40.351Z,0.00
2022-12-24T05:27:41.784Z,0.00
2022-12-24T05:28:40.349Z,0.00
2022-12-24T05:29:40.339Z,0.00
2022-12-24T05:30:40.363Z,0.00
2022-12-24T05:31:40.425Z,0.00
2022-12-24T05:32:40.326Z,0.00
2022-12-24T05:33:40.346Z,0.00
2022-12-24T05:34:40.320Z,0.00
2022-12-24T05:35:40.374Z,0.00
2022-12-24T05:36:40.330Z,0.00
2022-12-24T05:37:40.306Z,0.00
2022-12-24T05:38:40.310Z,0.00
2022-12-24T05:39:40.305Z,0.00
2022-12-24T05:40:40.296Z,0.00
2022-12-24T05:41:40.298Z,0.00
2022-12-24T05:42:40.310Z,0.00
2022-12-24T05:43:40.285Z,0.00
2022-12-24T05:44:40.283Z,0.00
2022-12-24T05:45:40.288Z,0.00
2022-12-24T05:46:40.323Z,0.00
2022-12-24T05:47:43.454Z,0.00
2022-12-24T05:48:40.274Z,0.00
2022-12-24T05:49:40.254Z,0.00
2022-12-24T05:50:40.263Z,0.00
2022-12-24T05:51:40.454Z,0.00
2022-12-24T05:52:40.249Z,0.00
2022-12-24T05:53:40.242Z,0.00
2022-12-24T05:54:40.238Z,0.00
2022-12-24T05:55:40.235Z,0.00
2022-12-24T05:56:40.231Z,0.00
2022-12-24T05:57:40.225Z,0.00
2022-12-24T05:58:40.234Z,0.00
2022-12-24T05:59:40.222Z,0.00
2022-12-24T06:00:40.210Z,0.00
2022-12-24T06:01:40.277Z,0.00
2022-12-24T06:02:40.254Z,0.00
2022-12-24T06:03:40.212Z,0.00
2022-12-24T06:04:40.266Z,0.00
2022-12-24T06:05:40.191Z,0.00
2022-12-24T06:06:40.191Z,0.00
2022-12-24T06:07:40.202Z,0.00
2022-12-24T06:08:40.186Z,0.00
2022-12-24T06:09:40.183Z,0.00
2022-12-24T06:10:40.184Z,0.00
2022-12-24T06:11:40.171Z,0.00
2022-12-24T06:12:40.162Z,0.00
2022-12-24T06:13:40.165Z,0.00
2022-12-24T06:14:40.160Z,0.00
2022-12-24T06:15:40.194Z,0.00
2022-12-24T06:16:40.349Z,0.00
2022-12-24T06:17:40.142Z,0.00
2022-12-24T06:18:40.146Z,0.00
2022-12-24T06:19:40.135Z,0.00
2022-12-24T06:20:40.133Z,0.00
2022-12-24T06:21:40.144Z,0.00
2022-12-24T06:22:40.137Z,0.00
2022-12-24T06:23:40.151Z,0.00
2022-12-24T06:24:40.113Z,0.00
2022-12-24T06:25:40.106Z,0.00
2022-12-24T06:26:40.124Z,0.00
2022-12-24T06:27:40.105Z,0.00
2022-12-24T06:28:40.127Z,0.00
2022-12-24T06:29:40.094Z,0.00
2022-12-24T06:30:40.089Z,0.00
2022-12-24T06:31:40.161Z,0.00
2022-12-24T06:32:40.082Z,0.00
2022-12-24T06:33:40.074Z,0.00
2022-12-24T06:34:40.088Z,0.00
2022-12-24T06:35:40.074Z,0.00
2022-12-24T06:36:40.080Z,0.00
2022-12-24T06:37:40.073Z,0.00
2022-12-24T06:38:40.057Z,0.00
2022-12-24T06:39:40.068Z,0.00
2022-12-24T06:40:40.053Z,0.00
2022-12-24T06:41:40.052Z,0.00
2022-12-24T06:42:40.048Z,0.00
2022-12-24T06:43:40.054Z,0.00
2022-12-24T06:44:40.049Z,0.00
2022-12-24T06:45:40.042Z,0.00
2022-12-24T06:46:40.143Z,0.00
2022-12-24T06:47:40.029Z,0.00
2022-12-24T06:48:40.033Z,0.00
2022-12-24T06:49:40.032Z,0.00
2022-12-24T06:50:40.024Z,0.00
2022-12-24T06:51:40.006Z,0.00
2022-12-24T06:52:39.999Z,0.00
2022-12-24T06:53:40.044Z,0.00
2022-12-24T06:54:40.006Z,0.00
2022-12-24T06:55:40.003Z,0.00
2022-12-24T06:56:39.995Z,0.00
2022-12-24T06:57:39.978Z,0.00
2022-12-24T06:58:39.978Z,0.00
2022-12-24T06:59:39.995Z,0.00
2022-12-24T07:00:40.009Z,0.00
2022-12-24T07:01:40.099Z,0.00
2022-12-24T07:02:40.038Z,0.00
2022-12-24T07:03:39.981Z,0.00
2022-12-24T07:04:39.949Z,0.00
2022-12-24T07:05:39.960Z,0.00
2022-12-24T07:06:39.956Z,0.00
2022-12-24T07:07:39.940Z,0.00
2022-12-24T07:08:39.936Z,0.00
2022-12-24T07:09:39.941Z,0.00
2022-12-24T07:10:39.933Z,0.00
2022-12-24T07:11:39.953Z,0.00
2022-12-24T07:12:39.918Z,0.00
2022-12-24T07:13:39.922Z,0.00
2022-12-24T07:14:39.921Z,0.00
2022-12-24T07:15:39.954Z,0.00
2022-12-24T07:16:40.041Z,4.00
2022-12-24T07:17:39.974Z,0.00
2022-12-24T07:18:39.896Z,4.00
2022-12-24T07:19:39.883Z,4.00
2022-12-24T07:20:39.905Z,4.00
2022-12-24T07:21:39.878Z,4.00
2022-12-24T07:22:39.890Z,4.00
2022-12-24T07:23:39.908Z,8.00
2022-12-24T07:24:39.869Z,8.00
2022-12-24T07:25:39.870Z,8.00
2022-12-24T07:26:39.856Z,8.00
2022-12-24T07:27:39.898Z,8.00
2022-12-24T07:28:39.862Z,12.00
2022-12-24T07:29:39.860Z,8.00
2022-12-24T07:30:39.847Z,12.00
2022-12-24T07:31:39.916Z,12.00
2022-12-24T07:32:39.849Z,16.00
2022-12-24T07:33:39.835Z,20.00
2022-12-24T07:34:39.865Z,16.00
2022-12-24T07:35:39.835Z,16.00
2022-12-24T07:36:39.820Z,12.00
2022-12-24T07:37:39.828Z,12.00
2022-12-24T07:38:39.833Z,16.00
2022-12-24T07:39:39.818Z,16.00
2022-12-24T07:40:39.860Z,16.00
2022-12-24T07:41:41.872Z,20.00
2022-12-24T07:42:39.804Z,20.00
2022-12-24T07:43:39.841Z,24.00
2022-12-24T07:44:39.807Z,24.00
2022-12-24T07:45:39.792Z,32.00
2022-12-24T07:46:39.862Z,36.00
2022-12-24T07:47:39.793Z,40.00
2022-12-24T07:48:39.784Z,52.00
2022-12-24T07:49:39.770Z,64.00
2022-12-24T07:50:39.803Z,84.00
2022-12-24T07:51:39.786Z,88.00
2022-12-24T07:52:39.764Z,96.00
2022-12-24T07:53:39.765Z,112.00
2022-12-24T07:54:39.764Z,128.00
2022-12-24T07:55:39.744Z,140.00
2022-12-24T07:56:39.752Z,140.00
2022-12-24T07:57:39.751Z,140.00
2022-12-24T07:58:39.754Z,148.00
2022-12-24T07:59:39.754Z,148.00
2022-12-24T08:00:39.754Z,152.00
2022-12-24T08:01:39.880Z,164.00
2022-12-24T08:02:39.936Z,156.00
2022-12-24T08:03:39.913Z,168.00
2022-12-24T08:04:39.717Z,172.00
2022-12-24T08:05:39.725Z,168.00
2022-12-24T08:06:39.720Z,180.00
2022-12-24T08:07:39.695Z,176.00
2022-12-24T08:08:39.692Z,192.00
2022-12-24T08:09:39.726Z,216.00
2022-12-24T08:10:39.686Z,208.00
2022-12-24T08:11:39.695Z,208.00
2022-12-24T08:12:39.671Z,220.00
2022-12-24T08:13:39.672Z,248.00
2022-12-24T08:14:39.680Z,260.00
2022-12-24T08:15:39.672Z,256.00
2022-12-24T08:16:39.744Z,268.00
2022-12-24T08:17:39.651Z,268.00
2022-12-24T08:18:39.671Z,268.00
2022-12-24T08:19:39.674Z,272.00
2022-12-24T08:20:39.666Z,240.00
2022-12-24T08:21:39.637Z,192.00
2022-12-24T08:22:39.636Z,160.00
2022-12-24T08:23:39.655Z,156.00
2022-12-24T08:24:39.641Z,164.00
2022-12-24T08:25:39.620Z,172.00
2022-12-24T08:26:39.621Z,228.00
2022-12-24T08:27:39.618Z,280.00
2022-12-24T08:28:39.623Z,292.00
2022-12-24T08:29:39.620Z,300.00
2022-12-24T08:30:39.629Z,292.00
2022-12-24T08:31:39.666Z,344.00
2022-12-24T08:32:39.592Z,384.00
2022-12-24T08:33:39.600Z,400.00
2022-12-24T08:34:39.607Z,396.00
2022-12-24T08:35:39.593Z,396.00
2022-12-24T08:36:39.576Z,400.00
2022-12-24T08:37:39.590Z,428.00
2022-12-24T08:38:39.587Z,452.00
2022-12-24T08:39:39.609Z,448.00
2022-12-24T08:40:39.591Z,436.00
2022-12-24T08:41:39.554Z,460.00
2022-12-24T08:42:39.636Z,512.00
2022-12-24T08:43:39.553Z,556.00
2022-12-24T08:44:39.555Z,608.00
2022-12-24T08:45:40.909Z,632.00
2022-12-24T08:46:39.584Z,660.00
2022-12-24T08:47:39.573Z,688.00
2022-12-24T08:48:39.540Z,668.00
2022-12-24T08:49:39.557Z,628.00
2022-12-24T08:50:39.523Z,552.00
2022-12-24T08:51:39.526Z,504.00
2022-12-24T08:52:39.537Z,480.00
2022-12-24T08:53:39.528Z,464.00
2022-12-24T08:54:39.531Z,448.00
2022-12-24T08:55:39.520Z,444.00
2022-12-24T08:56:39.504Z,444.00
2022-12-24T08:57:39.500Z,440.00
2022-12-24T08:58:39.509Z,408.00
2022-12-24T08:59:39.504Z,384.00
2022-12-24T09:00:39.553Z,384.00
2022-12-24T09:01:39.632Z,424.00
2022-12-24T09:02:39.602Z,468.00
2022-12-24T09:03:39.623Z,500.00
2022-12-24T09:04:39.476Z,516.00
2022-12-24T09:05:39.496Z,496.00
2022-12-24T09:06:39.489Z,440.00
2022-12-24T09:07:39.471Z,420.00
2022-12-24T09:08:39.470Z,468.00
2022-12-24T09:09:39.453Z,580.00
2022-12-24T09:10:39.483Z,704.00
2022-12-24T09:11:39.444Z,780.00
2022-12-24T09:12:39.444Z,812.00
2022-12-24T09:13:39.440Z,820.00
2022-12-24T09:14:39.431Z,688.00
2022-12-24T09:15:39.433Z,548.00
2022-12-24T09:16:39.462Z,484.00
2022-12-24T09:17:39.437Z,396.00
2022-12-24T09:18:39.438Z,364.00
2022-12-24T09:19:39.422Z,388.00
2022-12-24T09:20:44.291Z,404.00
2022-12-24T09:21:39.425Z,448.00
2022-12-24T09:22:39.409Z,536.00
2022-12-24T09:23:39.416Z,636.00
2022-12-24T09:24:39.403Z,768.00
2022-12-24T09:25:39.405Z,900.00
2022-12-24T09:26:39.393Z,1000.00
2022-12-24T09:27:39.391Z,1140.00
2022-12-24T09:28:39.382Z,1220.00
2022-12-24T09:29:39.379Z,1220.00
2022-12-24T09:30:39.394Z,1028.00
2022-12-24T09:31:39.459Z,840.00
2022-12-24T09:32:39.365Z,740.00
2022-12-24T09:33:39.367Z,788.00
2022-12-24T09:34:39.384Z,792.00
2022-12-24T09:35:39.380Z,800.00
2022-12-24T09:36:39.360Z,712.00
2022-12-24T09:37:39.364Z,728.00
2022-12-24T09:38:39.351Z,800.00
2022-12-24T09:39:39.340Z,772.00
2022-12-24T09:40:39.355Z,772.00
2022-12-24T09:41:39.348Z,664.00
2022-12-24T09:42:39.338Z,600.00
2022-12-24T09:43:39.338Z,580.00
2022-12-24T09:44:39.337Z,480.00
2022-12-24T09:45:39.349Z,392.00
2022-12-24T09:46:39.338Z,356.00
2022-12-24T09:47:39.316Z,392.00
2022-12-24T09:48:39.311Z,436.00
2022-12-24T09:49:39.310Z,396.00
2022-12-24T09:50:39.307Z,340.00
2022-12-24T09:51:39.349Z,288.00
2022-12-24T09:52:39.302Z,260.00
2022-12-24T09:53:39.309Z,252.00
2022-12-24T09:54:43.019Z,244.00
2022-12-24T09:55:39.321Z,276.00
2022-12-24T09:56:39.308Z,316.00
2022-12-24T09:57:39.285Z,336.00
2022-12-24T09:58:39.275Z,356.00
2022-12-24T09:59:40.179Z,408.00
2022-12-24T10:00:43.167Z,428.00
2022-12-24T10:01:39.339Z,452.00
2022-12-24T10:02:39.470Z,512.00
2022-12-24T10:13:52.188Z,512.00
2022-12-24T10:14:52.157Z,404.00
2022-12-24T10:15:52.168Z,480.00
2022-12-24T10:16:52.185Z,480.00
2022-12-24T10:17:52.140Z,568.00
2022-12-24T10:18:52.144Z,388.00
2022-12-24T10:19:52.122Z,436.00
2022-12-24T10:20:52.118Z,640.00
2022-12-24T10:21:52.118Z,676.00
2022-12-24T10:22:52.123Z,648.00
2022-12-24T10:23:52.109Z,500.00
2022-12-24T10:24:52.141Z,356.00
2022-12-24T10:25:52.092Z,376.00
2022-12-24T10:26:52.090Z,528.00
2022-12-24T10:27:52.097Z,664.00
2022-12-24T10:28:52.096Z,620.00
2022-12-24T10:29:52.102Z,552.00
2022-12-24T10:30:52.143Z,632.00
2022-12-24T10:31:52.070Z,868.00
2022-12-24T10:32:52.067Z,944.00
2022-12-24T10:33:52.070Z,1172.00
2022-12-24T10:34:52.070Z,1272.00
2022-12-24T10:35:52.088Z,976.00
2022-12-24T10:36:52.069Z,672.00
2022-12-24T10:37:52.049Z,588.00
2022-12-24T10:38:52.074Z,604.00
2022-12-24T10:39:52.041Z,624.00
2022-12-24T10:40:52.034Z,608.00
2022-12-24T10:41:52.036Z,648.00
2022-12-24T10:42:52.068Z,732.00
2022-12-24T10:43:52.026Z,900.00
2022-12-24T10:44:52.030Z,1028.00
2022-12-24T10:45:52.073Z,1212.00
2022-12-24T10:46:52.030Z,1812.00
2022-12-24T10:47:52.024Z,2428.00
2022-12-24T10:48:52.008Z,2472.00
2022-12-24T10:49:52.031Z,1912.00
2022-12-24T10:50:52.012Z,1784.00
2022-12-24T10:51:52.005Z,1608.00
2022-12-24T10:52:52.003Z,1228.00
2022-12-24T10:53:52.020Z,896.00
2022-12-24T10:54:51.988Z,860.00
2022-12-24T10:55:51.980Z,1068.00
2022-12-24T10:56:51.986Z,892.00
2022-12-24T10:57:51.974Z,696.00
2022-12-24T10:58:51.971Z,692.00
2022-12-24T10:59:51.972Z,1052.00
2022-12-24T11:00:51.990Z,1420.00
2022-12-24T11:01:52.109Z,1740.00
2022-12-24T11:02:52.213Z,1908.00
2022-12-24T11:03:52.024Z,1928.00
2022-12-24T11:04:51.971Z,2192.00
2022-12-24T11:05:51.949Z,1920.00
2022-12-24T11:06:51.944Z,1456.00
2022-12-24T11:07:51.936Z,1112.00
2022-12-24T11:08:51.942Z,1180.00
2022-12-24T11:09:51.953Z,1020.00
2022-12-24T11:10:51.935Z,984.00
2022-12-24T11:11:51.925Z,804.00
2022-12-24T11:13:12.656Z,656.00
2022-12-24T11:13:51.949Z,564.00
2022-12-24T11:14:51.951Z,624.00
2022-12-24T11:15:51.994Z,1104.00
2022-12-24T11:16:51.915Z,1368.00
2022-12-24T11:17:51.929Z,1072.00
2022-12-24T11:18:52.295Z,1092.00
2022-12-24T11:19:51.907Z,1084.00
2022-12-24T11:20:51.905Z,1004.00
2022-12-24T11:21:51.931Z,768.00
2022-12-24T11:22:51.898Z,720.00
2022-12-24T11:23:51.885Z,1068.00
2022-12-24T11:24:51.881Z,1384.00
2022-12-24T11:25:51.878Z,1320.00
2022-12-24T11:26:51.878Z,1764.00
2022-12-24T11:27:51.968Z,1848.00
2022-12-24T11:28:51.870Z,1196.00
2022-12-24T11:29:51.862Z,972.00
2022-12-24T11:30:51.910Z,900.00
2022-12-24T11:31:51.861Z,696.00
2022-12-24T11:32:51.857Z,740.00
2022-12-24T11:33:51.881Z,776.00
2022-12-24T11:34:51.855Z,860.00
2022-12-24T11:35:51.860Z,832.00
2022-12-24T11:36:51.844Z,1012.00
2022-12-24T11:37:51.844Z,1280.00
2022-12-24T11:38:51.848Z,1028.00
2022-12-24T11:39:51.841Z,928.00
2022-12-24T11:40:51.833Z,900.00
2022-12-24T11:41:51.831Z,852.00
2022-12-24T11:42:51.823Z,764.00
2022-12-24T11:43:51.817Z,728.00
2022-12-24T11:44:51.818Z,520.00
2022-12-24T11:45:51.819Z,528.00
2022-12-24T11:46:51.888Z,772.00
2022-12-24T11:47:51.818Z,856.00
2022-12-24T11:48:51.819Z,888.00
2022-12-24T11:49:51.847Z,736.00
2022-12-24T11:50:51.830Z,744.00
2022-12-24T11:51:51.796Z,1008.00
2022-12-24T11:52:51.803Z,1216.00
2022-12-24T11:53:51.798Z,1152.00
2022-12-24T11:54:51.782Z,1156.00
2022-12-24T11:55:51.780Z,912.00
2022-12-24T11:56:51.787Z,968.00
2022-12-24T11:57:51.790Z,880.00
2022-12-24T11:58:51.786Z,920.00
2022-12-24T11:59:51.777Z,844.00
2022-12-24T12:00:51.775Z,740.00
2022-12-24T12:01:51.792Z,696.00
2022-12-24T12:02:51.836Z,720.00
2022-12-24T12:03:51.874Z,760.00
2022-12-24T12:04:51.754Z,892.00
2022-12-24T12:05:51.760Z,1036.00
2022-12-24T12:06:51.745Z,1152.00
2022-12-24T12:07:51.760Z,1384.00
2022-12-24T12:08:51.744Z,1552.00
2022-12-24T12:09:51.741Z,1148.00
2022-12-24T12:10:51.751Z,820.00
2022-12-24T12:11:51.734Z,652.00
2022-12-24T12:12:51.738Z,688.00
2022-12-24T12:13:51.759Z,764.00
2022-12-24T12:14:51.753Z,820.00
2022-12-24T12:15:51.755Z,880.00
2022-12-24T12:16:51.710Z,1016.00
2022-12-24T12:17:51.717Z,1096.00
2022-12-24T12:18:51.720Z,904.00
2022-12-24T12:19:51.714Z,700.00
2022-12-24T12:20:51.713Z,680.00
2022-12-24T12:21:51.715Z,708.00
2022-12-24T12:22:51.701Z,664.00
2022-12-24T12:23:51.700Z,580.00
2022-12-24T12:24:51.687Z,576.00
2022-12-24T12:25:51.681Z,568.00
2022-12-24T12:26:51.685Z,492.00
2022-12-24T12:27:51.691Z,480.00
2022-12-24T12:28:51.693Z,560.00
2022-12-24T12:29:51.684Z,728.00
2022-12-24T12:30:51.670Z,800.00
2022-12-24T12:31:51.786Z,928.00
2022-12-24T12:32:51.729Z,2300.00
2022-12-24T12:33:51.661Z,1984.00
2022-12-24T12:34:51.660Z,2752.00
2022-12-24T12:35:51.652Z,3160.00
2022-12-24T12:36:51.645Z,3764.00
2022-12-24T12:37:51.659Z,4340.00
2022-12-24T12:38:51.654Z,7696.00
2022-12-24T12:39:51.649Z,4136.00
2022-12-24T12:40:51.650Z,3960.00
2022-12-24T12:41:51.631Z,3276.00
2022-12-24T12:42:51.622Z,3404.00
2022-12-24T12:43:51.624Z,5184.00
2022-12-24T12:44:51.630Z,3004.00
2022-12-24T12:45:51.647Z,2772.00
2022-12-24T12:46:51.694Z,6124.00
2022-12-24T12:47:51.615Z,7016.00
2022-12-24T12:48:55.667Z,6076.00
2022-12-24T12:49:51.613Z,5832.00
2022-12-24T12:50:51.608Z,3640.00
2022-12-24T12:51:51.620Z,4724.00
2022-12-24T12:52:51.600Z,3672.00
2022-12-24T12:53:51.629Z,2852.00
2022-12-24T12:54:51.591Z,7292.00
2022-12-24T12:55:51.608Z,4064.00
2022-12-24T12:56:51.588Z,3400.00
2022-12-24T12:57:51.591Z,3640.00
2022-12-24T12:58:51.588Z,4964.00
2022-12-24T12:59:51.611Z,3268.00
2022-12-24T13:00:51.652Z,2292.00
2022-12-24T13:01:51.758Z,3492.00
2022-12-24T13:02:51.794Z,4892.00
2022-12-24T13:03:51.598Z,7112.00
2022-12-24T13:04:51.573Z,6832.00
2022-12-24T13:05:51.573Z,6636.00
2022-12-24T13:06:51.575Z,5204.00
2022-12-24T13:07:51.566Z,3704.00
2022-12-24T13:08:51.604Z,3096.00
2022-12-24T13:09:51.585Z,3652.00
2022-12-24T13:10:51.561Z,1052.00
2022-12-24T13:11:51.575Z,1080.00
2022-12-24T13:12:51.564Z,3012.00
2022-12-24T13:13:51.556Z,3984.00
2022-12-24T13:14:51.578Z,1000.00
2022-12-24T13:15:51.616Z,2576.00
2022-12-24T13:16:51.625Z,2796.00
2022-12-24T13:17:51.563Z,908.00
2022-12-24T13:18:51.556Z,3008.00
2022-12-24T13:19:51.535Z,3392.00
2022-12-24T13:20:51.560Z,6760.00
2022-12-24T13:21:51.529Z,5920.00
2022-12-24T13:22:51.525Z,4852.00
2022-12-24T13:23:51.542Z,3564.00
2022-12-24T13:24:52.328Z,4168.00
2022-12-24T13:25:51.528Z,2456.00
2022-12-24T13:26:51.549Z,8972.00
2022-12-24T13:27:51.523Z,9480.00
2022-12-24T13:28:51.570Z,8104.00
2022-12-24T13:29:51.517Z,7200.00
2022-12-24T13:30:51.516Z,7584.00
2022-12-24T13:31:51.582Z,2428.00
2022-12-24T13:32:51.532Z,1992.00
2022-12-24T13:33:51.532Z,1408.00
2022-12-24T13:34:51.517Z,1580.00
2022-12-24T13:35:51.509Z,1736.00
2022-12-24T13:36:51.493Z,1892.00
2022-12-24T13:37:51.517Z,2124.00
2022-12-24T13:38:51.504Z,2216.00
2022-12-24T13:39:51.522Z,1964.00
2022-12-24T13:40:51.489Z,1840.00
2022-12-24T13:41:51.504Z,1816.00
2022-12-24T13:42:51.499Z,2008.00
2022-12-24T13:43:51.486Z,1912.00
2022-12-24T13:44:51.490Z,1724.00
2022-12-24T13:45:51.633Z,1768.00
2022-12-24T13:46:51.484Z,2112.00
2022-12-24T13:47:51.491Z,1760.00
2022-12-24T13:48:51.465Z,1660.00
2022-12-24T13:49:51.470Z,1716.00
2022-12-24T13:50:51.493Z,1928.00
2022-12-24T13:51:51.456Z,2096.00
2022-12-24T13:52:51.485Z,1952.00
2022-12-24T13:53:51.475Z,1740.00
2022-12-24T13:54:51.476Z,1380.00
2022-12-24T13:55:51.449Z,1192.00
2022-12-24T13:56:51.455Z,1280.00
2022-12-24T13:57:51.501Z,1792.00
2022-12-24T13:58:51.442Z,1104.00
2022-12-24T13:59:51.439Z,1280.00
2022-12-24T14:00:51.547Z,1400.00
2022-12-24T14:01:51.581Z,1604.00
2022-12-24T14:02:51.553Z,1776.00
2022-12-24T14:03:51.440Z,1864.00
2022-12-24T14:04:51.436Z,1816.00
2022-12-24T14:05:51.425Z,1968.00
2022-12-24T14:06:51.429Z,2144.00
2022-12-24T14:07:51.441Z,2300.00
2022-12-24T14:08:51.412Z,2880.00
2022-12-24T14:09:51.421Z,1776.00
2022-12-24T14:10:51.412Z,1920.00
2022-12-24T14:11:51.411Z,1632.00
2022-12-24T14:12:51.426Z,1436.00
2022-12-24T14:13:51.452Z,1072.00
2022-12-24T14:14:51.413Z,1012.00
2022-12-24T14:15:51.433Z,868.00
2022-12-24T14:16:51.472Z,784.00
2022-12-24T14:17:51.409Z,784.00
2022-12-24T14:18:51.384Z,800.00
2022-12-24T14:19:51.389Z,860.00
2022-12-24T14:20:51.390Z,948.00
2022-12-24T14:21:51.400Z,980.00
2022-12-24T14:22:51.374Z,1012.00
2022-12-24T14:23:51.407Z,1000.00
2022-12-24T14:24:51.377Z,980.00
2022-12-24T14:25:51.394Z,876.00
2022-12-24T14:26:51.381Z,872.00
2022-12-24T14:27:51.364Z,864.00
2022-12-24T14:28:51.374Z,868.00
2022-12-24T14:29:51.358Z,888.00
2022-12-24T14:30:51.369Z,904.00
2022-12-24T14:31:51.412Z,840.00
2022-12-24T14:32:51.350Z,740.00
2022-12-24T14:33:51.351Z,728.00
2022-12-24T14:34:51.335Z,796.00
2022-12-24T14:35:51.347Z,840.00
2022-12-24T14:36:51.379Z,808.00
2022-12-24T14:37:51.321Z,784.00
2022-12-24T14:38:51.320Z,744.00
2022-12-24T14:39:51.323Z,720.00
2022-12-24T14:40:51.321Z,676.00
2022-12-24T14:41:51.337Z,620.00
2022-12-24T14:42:51.315Z,564.00
2022-12-24T14:43:51.316Z,472.00
2022-12-24T14:44:51.300Z,376.00
2022-12-24T14:45:51.389Z,340.00
2022-12-24T14:46:51.312Z,352.00
2022-12-24T14:47:51.304Z,404.00
2022-12-24T14:48:51.315Z,488.00
2022-12-24T14:49:51.291Z,576.00
2022-12-24T14:50:51.333Z,612.00
2022-12-24T14:51:51.271Z,620.00
2022-12-24T14:53:10.520Z,604.00
2022-12-24T14:53:51.278Z,572.00
2022-12-24T14:54:51.273Z,552.00
2022-12-24T14:55:51.310Z,540.00
2022-12-24T14:56:51.300Z,476.00
2022-12-24T14:57:51.296Z,404.00
2022-12-24T14:58:51.273Z,356.00
2022-12-24T14:59:51.250Z,328.00
2022-12-24T15:00:51.277Z,292.00
2022-12-24T15:01:51.442Z,256.00
2022-12-24T15:02:51.482Z,248.00
2022-12-24T15:03:51.260Z,248.00
2022-12-24T15:04:51.253Z,252.00
2022-12-24T15:05:51.233Z,252.00
2022-12-24T15:06:51.237Z,248.00
2022-12-24T15:07:51.239Z,236.00
2022-12-24T15:08:51.218Z,220.00
2022-12-24T15:09:51.229Z,200.00
2022-12-24T15:10:51.231Z,184.00
2022-12-24T15:11:51.210Z,164.00
2022-12-24T15:12:51.205Z,152.00
2022-12-24T15:13:51.202Z,144.00
2022-12-24T15:14:51.214Z,136.00
2022-12-24T15:15:52.934Z,124.00
2022-12-24T15:16:51.241Z,112.00
2022-12-24T15:17:51.197Z,100.00
2022-12-24T15:18:52.919Z,88.00
2022-12-24T15:19:51.181Z,80.00
2022-12-24T15:20:51.199Z,72.00
2022-12-24T15:21:51.177Z,68.00
2022-12-24T15:22:51.174Z,64.00
2022-12-24T15:23:51.171Z,56.00
2022-12-24T15:24:51.188Z,52.00
2022-12-24T15:25:51.174Z,48.00
2022-12-24T15:26:51.159Z,40.00
2022-12-24T15:27:51.172Z,36.00
2022-12-24T15:28:53.025Z,32.00
2022-12-24T15:29:51.147Z,28.00
2022-12-24T15:30:51.199Z,24.00
2022-12-24T15:31:51.165Z,24.00
2022-12-24T15:32:51.275Z,20.00
2022-12-24T15:33:51.136Z,16.00
2022-12-24T15:34:51.446Z,16.00
2022-12-24T15:35:51.121Z,16.00
2022-12-24T15:36:51.118Z,12.00
2022-12-24T15:37:51.110Z,12.00
2022-12-24T15:38:51.122Z,12.00
2022-12-24T15:39:51.109Z,8.00
2022-12-24T15:40:51.148Z,8.00
2022-12-24T15:41:51.104Z,4.00
2022-12-24T15:42:51.096Z,8.00
2022-12-24T15:43:51.089Z,4.00
2022-12-24T15:44:51.102Z,4.00
2022-12-24T15:45:51.124Z,0.00
2022-12-24T15:46:51.095Z,4.00
2022-12-24T15:47:51.087Z,4.00
2022-12-24T15:48:51.100Z,4.00
2022-12-24T15:49:51.075Z,4.00
2022-12-24T15:50:51.068Z,0.00
2022-12-24T15:53:18.580Z,0.00
2022-12-24T15:53:51.050Z,0.00
2022-12-24T15:54:57.387Z,0.00
2022-12-24T15:55:51.051Z,0.00
2022-12-24T15:56:51.052Z,0.00
2022-12-24T15:57:51.047Z,0.00
2022-12-24T15:58:51.034Z,0.00
2022-12-24T15:59:51.057Z,0.00
2022-12-24T16:00:51.029Z,0.00
2022-12-24T16:13:01.862Z,0.00
2022-12-24T16:14:01.874Z,0.00
2022-12-24T16:15:01.822Z,0.00
2022-12-24T16:16:01.935Z,0.00
2022-12-24T16:17:01.793Z,0.00
2022-12-24T16:18:01.817Z,0.00
2022-12-24T16:19:01.782Z,0.00
2022-12-24T16:20:01.777Z,0.00
2022-12-24T16:21:01.800Z,0.00
2022-12-24T16:22:01.782Z,0.00
2022-12-24T16:23:01.759Z,0.00
2022-12-24T16:24:01.758Z,0.00
2022-12-24T16:25:01.754Z,0.00
2022-12-24T16:26:01.753Z,0.00
2022-12-24T16:27:01.745Z,0.00
2022-12-24T16:28:04.618Z,0.00
2022-12-24T16:29:01.765Z,0.00
2022-12-24T16:30:01.778Z,0.00
2022-12-24T16:31:01.784Z,0.00
2022-12-24T16:32:01.717Z,0.00
2022-12-24T16:33:01.722Z,0.00
2022-12-24T16:34:01.718Z,0.00
2022-12-24T16:35:01.728Z,0.00
2022-12-24T16:36:01.703Z,0.00
2022-12-24T16:37:01.698Z,0.00
2022-12-24T16:38:01.709Z,0.00
2022-12-24T16:39:01.704Z,0.00
2022-12-24T16:40:01.709Z,0.00
2022-12-24T16:41:01.722Z,0.00
2022-12-24T16:42:01.707Z,0.00
2022-12-24T16:43:01.678Z,0.00
2022-12-24T16:44:01.680Z,0.00
2022-12-24T16:45:01.671Z,0.00
2022-12-24T16:46:01.814Z,0.00
2022-12-24T16:47:01.679Z,0.00
2022-12-24T16:48:01.673Z,0.00
2022-12-24T16:49:01.651Z,0.00
2022-12-24T16:50:01.646Z,0.00
2022-12-24T16:51:01.658Z,0.00
2022-12-24T16:52:01.648Z,0.00
2022-12-24T16:53:01.627Z,0.00
2022-12-24T16:54:01.626Z,0.00
2022-12-24T16:55:01.634Z,0.00
2022-12-24T16:56:01.636Z,0.00
2022-12-24T16:57:01.636Z,0.00
2022-12-24T16:58:01.632Z,0.00
2022-12-24T16:59:01.608Z,0.00
2022-12-24T17:00:01.612Z,0.00
2022-12-24T17:01:01.635Z,0.00
2022-12-24T17:02:01.675Z,0.00
2022-12-24T17:03:01.788Z,0.00
2022-12-24T17:04:01.635Z,0.00